createdAt,value
2018-11-22T00:01:35.602Z,20.1
2018-11-22T00:04:44.429Z,20
2018-11-22T00:07:50.288Z,20
2018-11-22T00:10:56.238Z,20
2018-11-22T00:14:02.141Z,20
2018-11-22T00:17:08.156Z,20
2018-11-22T00:20:14.082Z,20
2018-11-22T00:23:20.066Z,20
2018-11-22T00:26:26.785Z,20
2018-11-22T00:29:32.777Z,20
2018-11-22T00:32:38.799Z,20
2018-11-22T00:35:44.910Z,19.9
2018-11-22T00:38:50.872Z,19.9
2018-11-22T00:41:56.774Z,19.9
2018-11-22T00:45:02.747Z,19.9
2018-11-22T00:48:08.794Z,19.9
2018-11-22T00:51:14.753Z,19.9
2018-11-22T00:54:20.696Z,19.9
2018-11-22T00:57:26.558Z,19.9
2018-11-22T01:00:32.582Z,19.9
2018-11-22T01:03:38.639Z,19.9
2018-11-22T01:06:44.561Z,19.8
2018-11-22T01:09:50.566Z,19.8
2018-11-22T01:12:56.566Z,19.8
2018-11-22T01:16:02.479Z,19.8
2018-11-22T01:19:08.495Z,19.9
2018-11-22T01:22:14.344Z,19.8
2018-11-22T01:25:20.344Z,19.8
2018-11-22T01:28:26.274Z,19.8
2018-11-22T01:31:32.211Z,19.8
2018-11-22T01:34:38.190Z,19.8
2018-11-22T01:37:44.119Z,19.8
2018-11-22T01:40:50.177Z,19.8
2018-11-22T01:43:56.165Z,19.8
2018-11-22T01:47:02.118Z,19.7
2018-11-22T01:50:08.058Z,19.8
2018-11-22T01:53:14.061Z,19.8
2018-11-22T01:56:20.011Z,19.7
2018-11-22T01:59:25.955Z,19.7
2018-11-22T02:02:32.009Z,19.7
2018-11-22T02:05:38.209Z,19.7
2018-11-22T02:08:44.155Z,19.6
2018-11-22T02:11:50.115Z,19.6
2018-11-22T02:14:56.125Z,19.5
2018-11-22T02:18:02.032Z,19.5
2018-11-22T02:21:07.956Z,19.5
2018-11-22T02:24:14.068Z,19.5
2018-11-22T02:27:20.097Z,19.5
2018-11-22T02:30:26.080Z,19.6
2018-11-22T02:33:32.135Z,19.6
2018-11-22T02:36:38.061Z,19.6
2018-11-22T02:39:44.080Z,19.6
2018-11-22T02:42:50.148Z,19.6
2018-11-22T02:45:56.145Z,19.7
2018-11-22T02:49:02.155Z,19.7
2018-11-22T02:52:08.102Z,19.8
2018-11-22T02:55:14.021Z,19.8
2018-11-22T02:58:20.120Z,19.9
2018-11-22T03:01:26.062Z,19.9
2018-11-22T03:04:32.169Z,20
2018-11-22T03:07:38.262Z,20
2018-11-22T03:10:44.253Z,20
2018-11-22T03:13:50.239Z,20.1
2018-11-22T03:16:56.192Z,20.1
2018-11-22T03:20:02.374Z,20.2
2018-11-22T03:23:08.315Z,20.2
2018-11-22T03:26:14.247Z,20.3
2018-11-22T03:29:20.124Z,20.3
2018-11-22T03:32:26.150Z,20.4
2018-11-22T03:35:32.193Z,20.4
2018-11-22T03:38:38.160Z,20.5
2018-11-22T03:41:44.220Z,20.5
2018-11-22T03:44:50.236Z,20.5
2018-11-22T03:47:56.194Z,20.6
2018-11-22T03:51:02.142Z,20.6
2018-11-22T03:54:08.097Z,20.7
2018-11-22T03:57:14.078Z,20.7
2018-11-22T04:00:20.028Z,20.8
2018-11-22T04:03:26.013Z,20.9
2018-11-22T04:06:32.000Z,20.9
2018-11-22T04:09:37.910Z,21
2018-11-22T04:12:44.154Z,21.1
2018-11-22T04:15:50.079Z,21.1
2018-11-22T04:18:56.142Z,21.2
2018-11-22T04:22:02.146Z,21.2
2018-11-22T04:25:08.141Z,21.3
2018-11-22T04:28:14.133Z,21.3
2018-11-22T04:31:20.137Z,21.4
2018-11-22T04:34:26.088Z,21.4
2018-11-22T04:37:32.174Z,21.4
2018-11-22T04:40:38.161Z,21.5
2018-11-22T04:43:44.117Z,21.5
2018-11-22T04:46:50.134Z,21.6
2018-11-22T04:49:56.087Z,21.6
2018-11-22T04:53:02.067Z,21.6
2018-11-22T04:56:08.038Z,21.7
2018-11-22T04:59:14.067Z,21.7
2018-11-22T05:02:19.993Z,21.7
2018-11-22T05:05:25.965Z,21.8
2018-11-22T05:08:31.864Z,21.8
2018-11-22T05:11:37.864Z,21.8
2018-11-22T05:14:43.848Z,21.9
2018-11-22T05:17:49.788Z,21.9
2018-11-22T05:20:55.761Z,21.9
2018-11-22T05:24:01.709Z,22
2018-11-22T05:27:07.670Z,22
2018-11-22T05:30:13.636Z,22
2018-11-22T05:33:19.662Z,22
2018-11-22T05:36:25.664Z,22
2018-11-22T05:39:31.610Z,22
2018-11-22T05:42:37.509Z,22
2018-11-22T05:45:43.541Z,22.1
2018-11-22T05:48:49.548Z,22
2018-11-22T05:51:55.555Z,22
2018-11-22T05:55:01.538Z,22.1
2018-11-22T05:58:07.583Z,22.2
2018-11-22T06:01:16.341Z,22.3
2018-11-22T06:04:22.303Z,22.3
2018-11-22T06:07:28.308Z,22.3
2018-11-22T06:10:34.332Z,22.4
2018-11-22T06:13:40.210Z,22.4
2018-11-22T06:16:46.268Z,22.5
2018-11-22T06:19:52.326Z,22.6
2018-11-22T06:22:58.272Z,22.7
2018-11-22T06:26:04.289Z,22.8
2018-11-22T06:29:10.370Z,22.8
2018-11-22T06:32:16.256Z,22.9
2018-11-22T06:35:25.166Z,22.9
2018-11-22T06:38:31.067Z,23
2018-11-22T06:41:37.048Z,23
2018-11-22T06:44:42.964Z,23
2018-11-22T06:47:49.067Z,23
2018-11-22T06:50:58.132Z,23.1
2018-11-22T06:54:04.134Z,23.1
2018-11-22T06:57:10.207Z,23.2
2018-11-22T07:00:16.244Z,23.3
2018-11-22T07:03:22.464Z,23.3
2018-11-22T07:06:28.530Z,23.4
2018-11-22T07:09:34.529Z,23.4
2018-11-22T07:12:40.548Z,23.4
2018-11-22T07:15:46.810Z,23.4
2018-11-22T07:18:52.735Z,23.5
2018-11-22T07:21:58.721Z,23.5
2018-11-22T07:25:04.753Z,23.5
2018-11-22T07:28:10.747Z,23.5
2018-11-22T07:31:16.999Z,23.5
2018-11-22T07:34:22.920Z,23.5
2018-11-22T07:37:28.987Z,23.5
2018-11-22T07:40:35.275Z,23.6
2018-11-22T07:43:41.370Z,23.6
2018-11-22T07:46:47.358Z,23.6
2018-11-22T07:49:53.648Z,23.7
2018-11-22T07:52:59.692Z,23.7
2018-11-22T07:56:05.621Z,23.7
2018-11-22T07:59:14.303Z,23.7
2018-11-22T08:02:20.397Z,23.7
2018-11-22T08:05:26.364Z,23.7
2018-11-22T08:08:35.063Z,23.8
2018-11-22T08:11:41.213Z,23.8
2018-11-22T08:14:48.243Z,23.9
2018-11-22T08:17:55.147Z,23.9
2018-11-22T08:21:04.821Z,23.9
2018-11-22T08:24:12.051Z,24
2018-11-22T08:27:21.179Z,24
2018-11-22T08:30:27.128Z,24.1
2018-11-22T08:33:33.009Z,24.2
2018-11-22T08:36:38.957Z,24.2
2018-11-22T08:39:45.025Z,24.3
2018-11-22T08:42:55.065Z,24.3
2018-11-22T08:46:02.336Z,24.3
2018-11-22T08:49:08.393Z,24.3
2018-11-22T08:52:14.437Z,24.4
2018-11-22T08:55:20.429Z,24.4
2018-11-22T08:58:26.385Z,24.4
2018-11-22T09:01:32.488Z,24.4
2018-11-22T09:04:39.454Z,24.4
2018-11-22T09:07:45.498Z,24.5
2018-11-22T09:10:51.630Z,24.5
2018-11-22T09:13:57.673Z,24.6
2018-11-22T09:17:03.709Z,24.7
2018-11-22T09:20:09.795Z,24.7
2018-11-22T09:23:15.840Z,24.8
2018-11-22T09:26:22.893Z,24.8
2018-11-22T09:29:28.928Z,24.8
2018-11-22T09:32:41.324Z,24.8
2018-11-22T09:35:49.926Z,24.8
2018-11-22T09:38:55.942Z,24.7
2018-11-22T09:42:02.045Z,24.7
2018-11-22T09:45:11.576Z,24.7
2018-11-22T09:48:17.921Z,24.8
2018-11-22T09:51:24.340Z,24.8
2018-11-22T09:54:30.299Z,24.8
2018-11-22T09:57:36.191Z,24.8
2018-11-22T10:00:42.504Z,24.9
2018-11-22T10:03:48.586Z,24.9
2018-11-22T10:06:54.599Z,24.9
2018-11-22T10:10:00.592Z,24.9
2018-11-22T10:13:06.603Z,24.9
2018-11-22T10:16:12.529Z,25
2018-11-22T10:19:18.524Z,25
2018-11-22T10:22:24.404Z,25
2018-11-22T10:25:30.982Z,25
2018-11-22T10:28:36.974Z,25
2018-11-22T10:31:43.086Z,25
2018-11-22T10:34:50.062Z,25
2018-11-22T10:37:56.282Z,25
2018-11-22T10:41:04.666Z,25
2018-11-22T10:44:10.621Z,25
2018-11-22T10:47:16.616Z,25
2018-11-22T10:50:22.785Z,25
2018-11-22T10:53:29.101Z,25.1
2018-11-22T10:56:36.560Z,25
2018-11-22T10:59:42.880Z,25
2018-11-22T11:02:48.823Z,25
2018-11-22T11:05:54.804Z,25
2018-11-22T11:09:01.939Z,25.1
2018-11-22T11:12:08.178Z,25.1
2018-11-22T11:15:14.139Z,25.1
2018-11-22T11:18:20.257Z,25.1
2018-11-22T11:21:26.623Z,25
2018-11-22T11:24:33.180Z,25
2018-11-22T11:27:46.760Z,25
2018-11-22T11:30:52.812Z,25
2018-11-22T11:34:00.455Z,25
2018-11-22T11:37:07.463Z,25
2018-11-22T11:40:13.426Z,25
2018-11-22T11:43:19.697Z,25
2018-11-22T11:46:26.726Z,25
2018-11-22T11:49:33.091Z,25
2018-11-22T11:52:39.033Z,25
2018-11-22T11:55:46.148Z,25
2018-11-22T11:58:52.237Z,25
2018-11-22T12:01:58.213Z,25
2018-11-22T12:05:04.227Z,25
2018-11-22T12:08:10.630Z,25
2018-11-22T12:11:17.111Z,25
2018-11-22T12:14:23.149Z,25
2018-11-22T12:17:29.202Z,25
2018-11-22T12:20:35.121Z,25
2018-11-22T12:23:41.060Z,25
2018-11-22T12:26:47.179Z,25
2018-11-22T12:29:53.113Z,25
2018-11-22T12:32:59.127Z,25.1
2018-11-22T12:36:05.140Z,25.1
2018-11-22T12:39:11.183Z,25.1
2018-11-22T12:42:17.055Z,25.1
2018-11-22T12:45:23.106Z,25.1
2018-11-22T12:48:29.081Z,25.1
2018-11-22T12:51:35.313Z,25.1
2018-11-22T12:54:41.269Z,25.2
2018-11-22T12:57:47.469Z,25.3
2018-11-22T13:00:53.669Z,25.3
2018-11-22T13:03:59.742Z,25.3
2018-11-22T13:07:07.016Z,25.3
2018-11-22T13:10:13.216Z,25.3
2018-11-22T13:13:24.374Z,25.3
2018-11-22T13:16:31.568Z,25.3
2018-11-22T13:19:37.667Z,25.4
2018-11-22T13:22:44.106Z,25.3
2018-11-22T13:25:50.146Z,25.4
2018-11-22T13:28:56.675Z,25.4
2018-11-22T13:32:03.014Z,25.4
2018-11-22T13:35:09.034Z,25.5
2018-11-22T13:38:17.496Z,25.5
2018-11-22T13:41:26.032Z,25.4
2018-11-22T13:44:31.918Z,25.5
2018-11-22T13:47:38.027Z,25.4
2018-11-22T13:50:44.051Z,25.3
2018-11-22T13:53:51.122Z,25.3
2018-11-22T13:56:57.310Z,25.3
2018-11-22T14:00:03.771Z,25.3
2018-11-22T14:03:10.909Z,25.3
2018-11-22T14:06:16.919Z,25.3
2018-11-22T14:09:24.222Z,25.3
2018-11-22T14:12:30.927Z,25.2
2018-11-22T14:15:39.071Z,25.2
2018-11-22T14:18:47.454Z,25.3
2018-11-22T14:21:53.526Z,25.3
2018-11-22T14:24:59.588Z,25.3
2018-11-22T14:28:05.996Z,25.3
2018-11-22T14:31:12.004Z,25.3
2018-11-22T14:34:17.958Z,25.2
2018-11-22T14:37:24.032Z,25.3
2018-11-22T14:40:30.983Z,25.2
2018-11-22T14:43:38.028Z,25.2
2018-11-22T14:46:45.186Z,25.3
2018-11-22T14:49:51.198Z,25.2
2018-11-22T16:52:57.258Z,23
2018-11-22T16:56:03.211Z,23.2
2018-11-22T16:59:09.058Z,23.3
2018-11-22T17:02:15.148Z,23.4
2018-11-22T17:05:21.072Z,23.4
2018-11-22T17:08:27.062Z,23.5
2018-11-22T17:11:33.336Z,23.5
2018-11-22T17:14:39.350Z,23.5
2018-11-22T17:17:45.399Z,23.5
2018-11-22T17:20:51.362Z,23.5
2018-11-22T17:23:57.386Z,23.5
2018-11-22T17:27:03.558Z,23.4
2018-11-22T17:30:11.293Z,23.4
2018-11-22T17:33:17.571Z,23.4
2018-11-22T17:36:23.591Z,23.4
2018-11-22T17:39:31.523Z,23.3
2018-11-22T17:42:37.651Z,23.3
2018-11-22T17:45:43.647Z,23.3
2018-11-22T17:48:49.605Z,23.3
2018-11-22T17:51:55.647Z,23.3
2018-11-22T17:55:01.691Z,23.2
2018-11-22T17:58:10.438Z,23.2
2018-11-22T18:01:16.480Z,23.2
2018-11-22T18:04:22.376Z,23.3
2018-11-22T18:07:28.349Z,23.3
2018-11-22T18:10:34.409Z,23.3
2018-11-22T18:13:40.476Z,23.3
2018-11-22T18:16:46.419Z,23.3
2018-11-22T18:19:52.357Z,23.3
2018-11-22T18:22:58.248Z,23.3
2018-11-22T18:26:04.232Z,23.3
2018-11-22T18:29:10.286Z,23.3
2018-11-22T18:32:16.218Z,23.3
2018-11-22T18:35:22.157Z,23.3
2018-11-22T18:38:28.189Z,23.3
2018-11-22T18:41:34.091Z,23.3
2018-11-22T18:44:40.048Z,23.3
2018-11-22T18:47:45.904Z,23.3
2018-11-22T18:50:51.874Z,23.3
2018-11-22T18:53:57.781Z,23.3
2018-11-22T18:57:03.684Z,23.3
2018-11-22T19:00:09.635Z,23.3
2018-11-22T19:03:15.525Z,23.3
2018-11-22T19:06:21.552Z,23.3
2018-11-22T19:09:27.545Z,23.3
2018-11-22T19:12:33.553Z,23.3
2018-11-22T19:15:39.578Z,23.3
2018-11-22T19:18:45.510Z,23.3
2018-11-22T19:21:51.428Z,23.3
2018-11-22T19:24:57.378Z,23.3
2018-11-22T19:28:03.354Z,23.3
2018-11-22T19:31:09.241Z,23.3
2018-11-22T19:34:15.198Z,23.3
2018-11-22T19:37:21.441Z,23.3
2018-11-22T19:40:27.522Z,23.3
2018-11-22T19:43:36.558Z,23.3
2018-11-22T19:46:42.500Z,23.3
2018-11-22T19:49:48.552Z,23.2
2018-11-22T19:52:54.512Z,23.2
2018-11-22T19:56:00.620Z,23.2
2018-11-22T19:59:06.611Z,23.2
2018-11-22T20:02:12.600Z,23.2
2018-11-22T20:05:18.482Z,23.1
2018-11-22T20:08:24.411Z,23.1
2018-11-22T20:11:30.432Z,23
2018-11-22T20:14:36.411Z,23
2018-11-22T20:17:42.373Z,23
2018-11-22T20:20:49.862Z,22.9
2018-11-22T20:23:56.241Z,22.9
2018-11-22T20:27:02.187Z,22.8
2018-11-22T20:30:08.147Z,22.8
2018-11-22T20:33:15.104Z,22.8
2018-11-22T20:36:21.112Z,22.7
2018-11-22T20:39:27.057Z,22.6
2018-11-22T20:42:32.956Z,22.6
2018-11-22T20:45:40.865Z,22.6
2018-11-22T20:48:46.983Z,22.5
2018-11-22T20:51:52.886Z,22.5
2018-11-22T20:54:58.826Z,22.5
2018-11-22T20:58:04.957Z,22.4
2018-11-22T21:01:11.017Z,22.4
2018-11-22T21:04:17.005Z,22.4
2018-11-22T21:07:22.894Z,22.3
2018-11-22T21:10:28.998Z,22.3
2018-11-22T21:13:35.163Z,22.3
2018-11-22T21:16:41.085Z,22.2
2018-11-22T21:19:47.009Z,22.2
2018-11-22T21:22:52.955Z,22.2
2018-11-22T21:25:58.952Z,22.1
2018-11-22T21:29:05.035Z,22.1
2018-11-22T21:32:10.979Z,22.1
2018-11-22T21:35:16.915Z,22.1
2018-11-22T21:38:22.782Z,22
2018-11-22T21:41:28.723Z,22
2018-11-22T21:44:34.614Z,22
2018-11-22T21:47:40.581Z,22
2018-11-22T21:50:46.629Z,21.9
2018-11-22T21:53:52.476Z,21.9
2018-11-22T21:56:58.413Z,21.9
2018-11-22T22:00:04.474Z,21.9
2018-11-22T22:03:10.530Z,21.9
2018-11-22T22:06:16.487Z,21.9
2018-11-22T22:09:22.500Z,21.9
2018-11-22T22:12:29.381Z,21.8
2018-11-22T22:15:35.450Z,21.8
2018-11-22T22:18:41.605Z,21.8
2018-11-22T22:21:47.554Z,21.8
2018-11-22T22:24:53.515Z,21.8
2018-11-22T22:27:59.488Z,21.8
2018-11-22T22:31:05.435Z,21.8
2018-11-22T22:34:11.384Z,21.7
2018-11-22T22:37:17.338Z,21.7
2018-11-22T22:40:23.355Z,21.7
2018-11-22T22:43:29.317Z,21.7
2018-11-22T22:46:35.221Z,21.6
2018-11-22T22:49:41.198Z,21.6
2018-11-22T22:52:47.257Z,21.6
2018-11-22T22:55:53.378Z,21.6
2018-11-22T22:59:02.061Z,21.6
2018-11-22T23:02:08.044Z,21.6
2018-11-22T23:05:14.126Z,21.6
2018-11-22T23:08:20.090Z,21.6
2018-11-22T23:11:25.971Z,21.5
2018-11-22T23:14:31.922Z,21.5
2018-11-22T23:17:37.787Z,21.5
2018-11-22T23:20:43.723Z,21.5
2018-11-22T23:23:49.711Z,21.5
2018-11-22T23:26:55.565Z,21.5
2018-11-22T23:30:01.508Z,21.5
2018-11-22T23:33:07.373Z,21.5
2018-11-22T23:36:13.327Z,21.5
2018-11-22T23:39:19.265Z,21.5
2018-11-22T23:42:25.259Z,21.5
2018-11-22T23:45:31.106Z,21.5
2018-11-22T23:48:37.116Z,21.4
2018-11-22T23:51:43.071Z,21.4
2018-11-22T23:54:48.991Z,21.4
2018-11-22T23:57:54.937Z,21.4
